Grand Strand Airport
KCRE : now visible

Airfield :











YOU CAN JOIN US ON...

 
LOGIN :

Register | Disclaimer

   EN    FR    IT 

 









Legend :    VFR   Marginal VFR   IFR   Intensive IFR   Very Intensive IFR
Visi :
Ceiling :
>= 8 km
>= 3000ft
5 to 8 km
1000 to 3000 ft
1500m to 5 km
500 to 1000 ft
800 to 1500m
200 to 500 ft
< 800m
< 200 ft
Symbols :   Thunderstorms  Fog  Heavy snow  Heavy precipitations  Wind > 20 kt






- Airport Elevation : 32 ft


KCRE - Grand Strand

CURRENT METAR :
  • 111053Z 00000KT 10SM CLR 24/23 A2981 RMK AO1 SLP096 T02390233

EXPIRED METARs :
  • 110953Z AUTO 00000KT 10SM FEW033 24/23 A2981 RMK AO1 LTG DSNT SE RAE04 SLP094 P0000 T02390228
  • 110920Z AUTO 00000KT 10SM BKN090 24/23 A2983 RMK AO1 LTG DSNT SE RAE04 P0000 T02390228
  • 110853Z AUTO 00000KT 7SM VCTS RA BKN045 BKN055 OVC085 24/23 A2984 RMK AO1 LTG DSNT ALQDS RAB01 TSB15E30B34E49 SLP105 P0054 60054 T02390228 58001
  • 110829Z AUTO VRB04KT 3SM -TSRA BR FEW014 BKN030 OVC047 24/23 A2986 RMK AO1 LTG DSNT NE AND S AND NW RAB01 TSB15 P0051 T02390228
  • 110816Z AUTO 35013G19KT 1 1/4SM +TSRA BR BKN012 BKN022 OVC040 24/23 A2986 RMK AO1 LTG DSNT NE AND NW RAB01 TSB15 P0037 T02390228

TAF KCRE
Valid from the 11 at 08:00 until the 12 at 06:00 UTC


110808Z 1108/1206 32013KT 6SM -SHRA VCTS BKN025CB
FM110900 24005KT P6SM SCT035
FM111600 19009KT P6SM FEW035
KZJX FIR / North America



MET'MAP, your aeronautical weather chart ! - Copyright ORBIFLY December 2007 - Disclaimer

ORBIFLY MET'MAP TEAM :

Programming & Development : Alexandra Zaïnal
Concept & original design : Baudouin d'Aumeries
Assistance for programming : Marc-Olivier Méhu
Technical & hardware support : Manuel Goepfert

Contact : metmap@orbifly.com




SOURCES & CREDITS :

   NOAA       Earth
Advisory